Berlin Township, Michigan
Current Conditions -  °F | °C
As of 8:14 PM on Tuesday 21 Oct 2014 (Local Time) from KD95 Reporting Station
Overcast Overcast  
Wind Chill: 39°   Ceiling: 2300
Heat Index: 43°   Visibility: 10mi
Dew Point: 35°   Wind: 7mph
Humidity: 73%   Direction: 10°N
Pressure: 30.19"   Gusts: NA
Location:  42.9384°N, 82.9255°W
Report Text: KD95 220014Z AUTO 01006KT 10SM OVC023 06/02 A3019 RMK AO2 T00600015
Loading
Personal Weather Stations






























Interactive Weather Map
Tropical Storm Tracking
New forecast layout! Learn more

10-Day Weather Forecast

Advertisements
Track Severe Weather on mobile